sensor_id;sensor_type;location;lat;lon;timestamp;temperature;humidity
21115;DHT22;10715;48.546;9.896;2023-07-13T00:01:15;17.20;99.90
21115;DHT22;10715;48.546;9.896;2023-07-13T00:03:42;17.20;99.90
21115;DHT22;10715;48.546;9.896;2023-07-13T00:06:08;17.20;99.90
21115;DHT22;10715;48.546;9.896;2023-07-13T00:08:35;17.10;99.90
21115;DHT22;10715;48.546;9.896;2023-07-13T00:11:01;17.10;99.90
21115;DHT22;10715;48.546;9.896;2023-07-13T00:13:28;17.10;99.90
21115;DHT22;10715;48.546;9.896;2023-07-13T00:15:55;17.10;99.90
21115;DHT22;10715;48.546;9.896;2023-07-13T00:18:21;17.10;99.90
21115;DHT22;10715;48.546;9.896;2023-07-13T00:20:47;17.10;99.90
21115;DHT22;10715;48.546;9.896;2023-07-13T00:23:14;17.00;99.90
21115;DHT22;10715;48.546;9.896;2023-07-13T00:25:39;17.00;99.90
21115;DHT22;10715;48.546;9.896;2023-07-13T00:28:05;17.00;99.90
21115;DHT22;10715;48.546;9.896;2023-07-13T00:30:31;17.00;99.90
21115;DHT22;10715;48.546;9.896;2023-07-13T00:32:57;17.00;99.90
21115;DHT22;10715;48.546;9.896;2023-07-13T00:35:23;17.00;99.90
21115;DHT22;10715;48.546;9.896;2023-07-13T00:37:48;16.90;99.90
21115;DHT22;10715;48.546;9.896;2023-07-13T00:40:15;16.90;99.90
21115;DHT22;10715;48.546;9.896;2023-07-13T00:42:42;16.90;99.90
21115;DHT22;10715;48.546;9.896;2023-07-13T00:47:40;16.90;99.90
21115;DHT22;10715;48.546;9.896;2023-07-13T00:50:09;16.90;99.90
21115;DHT22;10715;48.546;9.896;2023-07-13T00:52:37;16.90;99.90
21115;DHT22;10715;48.546;9.896;2023-07-13T00:55:05;16.80;99.90
21115;DHT22;10715;48.546;9.896;2023-07-13T00:57:30;16.80;99.90
21115;DHT22;10715;48.546;9.896;2023-07-13T00:59:59;16.70;99.90
21115;DHT22;10715;48.546;9.896;2023-07-13T01:02:26;16.70;99.90
21115;DHT22;10715;48.546;9.896;2023-07-13T01:04:53;16.70;99.90
21115;DHT22;10715;48.546;9.896;2023-07-13T01:07:19;16.70;99.90
21115;DHT22;10715;48.546;9.896;2023-07-13T01:09:45;16.70;99.90
21115;DHT22;10715;48.546;9.896;2023-07-13T01:12:11;16.60;99.90
21115;DHT22;10715;48.546;9.896;2023-07-13T01:14:37;16.60;99.90
21115;DHT22;10715;48.546;9.896;2023-07-13T01:17:03;16.60;99.90
21115;DHT22;10715;48.546;9.896;2023-07-13T01:19:38;16.50;99.90
21115;DHT22;10715;48.546;9.896;2023-07-13T01:22:16;16.50;99.90
21115;DHT22;10715;48.546;9.896;2023-07-13T01:24:44;16.40;99.90
21115;DHT22;10715;48.546;9.896;2023-07-13T01:27:14;16.40;99.90
21115;DHT22;10715;48.546;9.896;2023-07-13T01:29:41;16.40;99.90
21115;DHT22;10715;48.546;9.896;2023-07-13T01:32:13;16.40;99.90
21115;DHT22;10715;48.546;9.896;2023-07-13T01:34:40;16.40;99.90
21115;DHT22;10715;48.546;9.896;2023-07-13T01:37:08;16.30;99.90
21115;DHT22;10715;48.546;9.896;2023-07-13T01:39:35;16.30;99.90
21115;DHT22;10715;48.546;9.896;2023-07-13T01:42:01;16.30;99.90
21115;DHT22;10715;48.546;9.896;2023-07-13T01:44:27;16.30;99.90
21115;DHT22;10715;48.546;9.896;2023-07-13T01:46:53;16.30;99.90
21115;DHT22;10715;48.546;9.896;2023-07-13T01:49:19;16.20;99.90
21115;DHT22;10715;48.546;9.896;2023-07-13T01:51:45;16.20;99.90
21115;DHT22;10715;48.546;9.896;2023-07-13T01:54:10;16.20;99.90
21115;DHT22;10715;48.546;9.896;2023-07-13T01:56:36;16.10;99.90
21115;DHT22;10715;48.546;9.896;2023-07-13T01:59:02;16.10;99.90
21115;DHT22;10715;48.546;9.896;2023-07-13T02:01:28;16.00;99.90
21115;DHT22;10715;48.546;9.896;2023-07-13T02:03:54;16.00;99.90
21115;DHT22;10715;48.546;9.896;2023-07-13T02:06:19;15.90;99.90
21115;DHT22;10715;48.546;9.896;2023-07-13T02:08:45;15.90;99.90
21115;DHT22;10715;48.546;9.896;2023-07-13T02:11:11;15.90;99.90
21115;DHT22;10715;48.546;9.896;2023-07-13T02:13:37;15.80;99.90
21115;DHT22;10715;48.546;9.896;2023-07-13T02:16:02;15.80;99.90
21115;DHT22;10715;48.546;9.896;2023-07-13T02:18:28;15.70;99.90
21115;DHT22;10715;48.546;9.896;2023-07-13T02:20:54;15.70;99.90
21115;DHT22;10715;48.546;9.896;2023-07-13T02:23:19;15.60;99.90
21115;DHT22;10715;48.546;9.896;2023-07-13T02:25:45;15.60;99.90
21115;DHT22;10715;48.546;9.896;2023-07-13T02:28:11;15.50;99.90
21115;DHT22;10715;48.546;9.896;2023-07-13T02:30:37;15.50;99.90
21115;DHT22;10715;48.546;9.896;2023-07-13T02:33:04;15.50;99.90
21115;DHT22;10715;48.546;9.896;2023-07-13T02:35:30;15.50;99.90
21115;DHT22;10715;48.546;9.896;2023-07-13T02:37:56;15.40;99.90
21115;DHT22;10715;48.546;9.896;2023-07-13T02:40:21;15.40;99.90
21115;DHT22;10715;48.546;9.896;2023-07-13T02:42:47;15.40;99.90
21115;DHT22;10715;48.546;9.896;2023-07-13T02:45:13;15.30;99.90
21115;DHT22;10715;48.546;9.896;2023-07-13T02:47:41;15.30;99.90
21115;DHT22;10715;48.546;9.896;2023-07-13T02:50:07;15.30;99.90
21115;DHT22;10715;48.546;9.896;2023-07-13T02:52:33;15.20;99.90
21115;DHT22;10715;48.546;9.896;2023-07-13T02:54:59;15.20;99.90
21115;DHT22;10715;48.546;9.896;2023-07-13T02:57:24;15.10;99.90
21115;DHT22;10715;48.546;9.896;2023-07-13T02:59:50;15.10;99.90
21115;DHT22;10715;48.546;9.896;2023-07-13T03:02:16;15.10;99.90
21115;DHT22;10715;48.546;9.896;2023-07-13T03:04:42;15.00;99.90
21115;DHT22;10715;48.546;9.896;2023-07-13T03:07:08;15.00;99.90
21115;DHT22;10715;48.546;9.896;2023-07-13T03:09:34;15.00;99.90
21115;DHT22;10715;48.546;9.896;2023-07-13T03:12:00;14.90;99.90
21115;DHT22;10715;48.546;9.896;2023-07-13T03:14:26;14.90;99.90
21115;DHT22;10715;48.546;9.896;2023-07-13T03:16:52;14.90;99.90
21115;DHT22;10715;48.546;9.896;2023-07-13T03:19:19;14.80;99.90
21115;DHT22;10715;48.546;9.896;2023-07-13T03:21:45;14.80;99.90
21115;DHT22;10715;48.546;9.896;2023-07-13T03:24:10;14.80;99.90
21115;DHT22;10715;48.546;9.896;2023-07-13T03:26:36;14.70;99.90
21115;DHT22;10715;48.546;9.896;2023-07-13T03:29:02;14.70;99.90
21115;DHT22;10715;48.546;9.896;2023-07-13T03:31:29;14.70;99.90
21115;DHT22;10715;48.546;9.896;2023-07-13T03:33:56;14.70;99.90
21115;DHT22;10715;48.546;9.896;2023-07-13T03:36:25;14.60;99.90
21115;DHT22;10715;48.546;9.896;2023-07-13T03:38:54;14.60;99.90
21115;DHT22;10715;48.546;9.896;2023-07-13T03:41:21;14.60;99.90
21115;DHT22;10715;48.546;9.896;2023-07-13T03:43:48;14.50;99.90
21115;DHT22;10715;48.546;9.896;2023-07-13T03:46:14;14.50;99.90
21115;DHT22;10715;48.546;9.896;2023-07-13T03:48:41;14.50;99.90
21115;DHT22;10715;48.546;9.896;2023-07-13T03:51:09;14.50;99.90
21115;DHT22;10715;48.546;9.896;2023-07-13T03:53:39;14.40;99.90
21115;DHT22;10715;48.546;9.896;2023-07-13T03:56:06;14.40;99.90
21115;DHT22;10715;48.546;9.896;2023-07-13T03:58:40;14.40;99.90
21115;DHT22;10715;48.546;9.896;2023-07-13T04:01:07;14.30;99.90
21115;DHT22;10715;48.546;9.896;2023-07-13T04:03:34;14.30;99.90
21115;DHT22;10715;48.546;9.896;2023-07-13T04:06:00;14.30;99.90
21115;DHT22;10715;48.546;9.896;2023-07-13T04:08:31;14.30;99.90
21115;DHT22;10715;48.546;9.896;2023-07-13T04:10:58;14.30;99.90
21115;DHT22;10715;48.546;9.896;2023-07-13T04:13:24;14.30;99.90
21115;DHT22;10715;48.546;9.896;2023-07-13T04:15:50;14.30;99.90
21115;DHT22;10715;48.546;9.896;2023-07-13T04:18:16;14.30;99.90
21115;DHT22;10715;48.546;9.896;2023-07-13T04:20:42;14.30;99.90
21115;DHT22;10715;48.546;9.896;2023-07-13T04:23:08;14.30;99.90
21115;DHT22;10715;48.546;9.896;2023-07-13T04:25:34;14.20;99.90
21115;DHT22;10715;48.546;9.896;2023-07-13T04:27:59;14.30;99.90
21115;DHT22;10715;48.546;9.896;2023-07-13T04:30:25;14.30;99.90
21115;DHT22;10715;48.546;9.896;2023-07-13T04:32:52;14.20;99.90
21115;DHT22;10715;48.546;9.896;2023-07-13T04:35:19;14.30;99.90
21115;DHT22;10715;48.546;9.896;2023-07-13T04:37:49;14.30;99.90
21115;DHT22;10715;48.546;9.896;2023-07-13T04:40:17;14.20;99.90
21115;DHT22;10715;48.546;9.896;2023-07-13T04:42:44;14.30;99.90
21115;DHT22;10715;48.546;9.896;2023-07-13T04:45:10;14.30;99.90
21115;DHT22;10715;48.546;9.896;2023-07-13T04:47:36;14.30;99.90
21115;DHT22;10715;48.546;9.896;2023-07-13T04:50:02;14.30;99.90
21115;DHT22;10715;48.546;9.896;2023-07-13T04:52:28;14.40;99.90
21115;DHT22;10715;48.546;9.896;2023-07-13T04:54:54;14.40;99.90
21115;DHT22;10715;48.546;9.896;2023-07-13T04:57:20;14.40;99.90
21115;DHT22;10715;48.546;9.896;2023-07-13T04:59:45;14.40;99.90
21115;DHT22;10715;48.546;9.896;2023-07-13T05:02:11;14.50;99.90
21115;DHT22;10715;48.546;9.896;2023-07-13T05:04:37;14.50;99.90
21115;DHT22;10715;48.546;9.896;2023-07-13T05:07:03;14.50;99.90
21115;DHT22;10715;48.546;9.896;2023-07-13T05:09:29;14.60;99.90
21115;DHT22;10715;48.546;9.896;2023-07-13T05:11:54;14.60;99.90
21115;DHT22;10715;48.546;9.896;2023-07-13T05:14:20;14.60;99.90
21115;DHT22;10715;48.546;9.896;2023-07-13T05:16:46;14.70;99.90
21115;DHT22;10715;48.546;9.896;2023-07-13T05:19:12;14.70;99.90
21115;DHT22;10715;48.546;9.896;2023-07-13T05:21:38;14.70;99.90
21115;DHT22;10715;48.546;9.896;2023-07-13T05:24:04;14.70;99.90
21115;DHT22;10715;48.546;9.896;2023-07-13T05:26:29;14.70;99.90
21115;DHT22;10715;48.546;9.896;2023-07-13T05:28:55;14.80;99.90
21115;DHT22;10715;48.546;9.896;2023-07-13T05:31:21;14.80;99.90
21115;DHT22;10715;48.546;9.896;2023-07-13T05:33:46;14.80;99.90
21115;DHT22;10715;48.546;9.896;2023-07-13T05:36:12;14.90;99.90
21115;DHT22;10715;48.546;9.896;2023-07-13T05:38:38;14.90;99.90
21115;DHT22;10715;48.546;9.896;2023-07-13T05:41:03;14.90;99.90
21115;DHT22;10715;48.546;9.896;2023-07-13T05:43:29;14.90;99.90
21115;DHT22;10715;48.546;9.896;2023-07-13T05:45:56;15.00;99.90
21115;DHT22;10715;48.546;9.896;2023-07-13T05:48:22;15.00;99.90
21115;DHT22;10715;48.546;9.896;2023-07-13T05:50:48;15.00;99.90
21115;DHT22;10715;48.546;9.896;2023-07-13T05:53:15;15.10;99.90
21115;DHT22;10715;48.546;9.896;2023-07-13T05:55:45;15.10;99.90
21115;DHT22;10715;48.546;9.896;2023-07-13T05:58:13;15.10;99.90
21115;DHT22;10715;48.546;9.896;2023-07-13T06:00:39;15.20;99.90
21115;DHT22;10715;48.546;9.896;2023-07-13T06:03:06;15.20;99.90
21115;DHT22;10715;48.546;9.896;2023-07-13T06:05:33;15.30;99.90
21115;DHT22;10715;48.546;9.896;2023-07-13T06:08:00;15.30;99.90
21115;DHT22;10715;48.546;9.896;2023-07-13T06:10:25;15.30;99.90
21115;DHT22;10715;48.546;9.896;2023-07-13T06:12:51;15.40;99.90
21115;DHT22;10715;48.546;9.896;2023-07-13T06:15:17;15.40;99.90
21115;DHT22;10715;48.546;9.896;2023-07-13T06:17:43;15.40;99.90
21115;DHT22;10715;48.546;9.896;2023-07-13T06:20:09;15.50;99.90
21115;DHT22;10715;48.546;9.896;2023-07-13T06:22:35;15.50;99.90
21115;DHT22;10715;48.546;9.896;2023-07-13T06:25:00;15.50;99.90
21115;DHT22;10715;48.546;9.896;2023-07-13T06:27:26;15.50;99.90
21115;DHT22;10715;48.546;9.896;2023-07-13T06:29:52;15.50;99.90
21115;DHT22;10715;48.546;9.896;2023-07-13T06:32:17;15.60;99.90
21115;DHT22;10715;48.546;9.896;2023-07-13T06:34:43;15.70;99.90
21115;DHT22;10715;48.546;9.896;2023-07-13T06:37:09;15.90;99.90
21115;DHT22;10715;48.546;9.896;2023-07-13T06:39:35;16.00;99.90
21115;DHT22;10715;48.546;9.896;2023-07-13T06:42:01;16.10;99.90
21115;DHT22;10715;48.546;9.896;2023-07-13T06:44:27;16.20;99.90
21115;DHT22;10715;48.546;9.896;2023-07-13T06:46:53;16.30;99.90
21115;DHT22;10715;48.546;9.896;2023-07-13T06:49:19;16.50;99.90
21115;DHT22;10715;48.546;9.896;2023-07-13T06:51:44;16.60;99.90
21115;DHT22;10715;48.546;9.896;2023-07-13T06:54:10;16.70;99.90
21115;DHT22;10715;48.546;9.896;2023-07-13T06:56:36;16.80;99.90
21115;DHT22;10715;48.546;9.896;2023-07-13T06:59:01;16.80;99.90
21115;DHT22;10715;48.546;9.896;2023-07-13T07:01:27;16.90;99.90
21115;DHT22;10715;48.546;9.896;2023-07-13T07:03:53;17.10;99.90
21115;DHT22;10715;48.546;9.896;2023-07-13T07:06:21;17.20;99.90
21115;DHT22;10715;48.546;9.896;2023-07-13T07:08:50;17.30;99.90
21115;DHT22;10715;48.546;9.896;2023-07-13T07:11:24;17.40;99.90
21115;DHT22;10715;48.546;9.896;2023-07-13T07:13:50;17.50;99.90
21115;DHT22;10715;48.546;9.896;2023-07-13T07:16:17;17.60;99.90
21115;DHT22;10715;48.546;9.896;2023-07-13T07:18:43;17.70;99.90
21115;DHT22;10715;48.546;9.896;2023-07-13T07:21:09;17.80;99.90
21115;DHT22;10715;48.546;9.896;2023-07-13T07:23:35;17.90;99.90
21115;DHT22;10715;48.546;9.896;2023-07-13T07:26:00;18.00;99.90
21115;DHT22;10715;48.546;9.896;2023-07-13T07:28:26;18.10;99.90
21115;DHT22;10715;48.546;9.896;2023-07-13T07:30:56;18.10;99.90
21115;DHT22;10715;48.546;9.896;2023-07-13T07:33:22;18.10;99.90
21115;DHT22;10715;48.546;9.896;2023-07-13T07:35:47;18.10;99.90
21115;DHT22;10715;48.546;9.896;2023-07-13T07:38:13;18.10;99.90
21115;DHT22;10715;48.546;9.896;2023-07-13T07:40:40;18.10;99.90
21115;DHT22;10715;48.546;9.896;2023-07-13T07:43:07;18.10;99.90
21115;DHT22;10715;48.546;9.896;2023-07-13T07:45:34;18.00;99.90
21115;DHT22;10715;48.546;9.896;2023-07-13T07:47:59;18.10;99.90
21115;DHT22;10715;48.546;9.896;2023-07-13T07:50:26;18.10;99.90
21115;DHT22;10715;48.546;9.896;2023-07-13T07:52:52;18.20;99.90
21115;DHT22;10715;48.546;9.896;2023-07-13T07:55:17;18.10;99.90
21115;DHT22;10715;48.546;9.896;2023-07-13T07:57:43;18.20;99.90
21115;DHT22;10715;48.546;9.896;2023-07-13T08:00:09;18.20;99.90
21115;DHT22;10715;48.546;9.896;2023-07-13T08:02:35;18.20;99.90
21115;DHT22;10715;48.546;9.896;2023-07-13T08:05:01;18.20;99.90
21115;DHT22;10715;48.546;9.896;2023-07-13T08:07:27;18.30;99.90
21115;DHT22;10715;48.546;9.896;2023-07-13T08:09:53;18.30;99.90
21115;DHT22;10715;48.546;9.896;2023-07-13T08:12:19;18.40;99.90
21115;DHT22;10715;48.546;9.896;2023-07-13T08:14:45;18.50;99.90
21115;DHT22;10715;48.546;9.896;2023-07-13T08:17:11;18.50;99.90
21115;DHT22;10715;48.546;9.896;2023-07-13T08:19:36;18.60;99.90
21115;DHT22;10715;48.546;9.896;2023-07-13T08:22:02;18.70;99.90
21115;DHT22;10715;48.546;9.896;2023-07-13T08:24:28;18.60;99.90
21115;DHT22;10715;48.546;9.896;2023-07-13T08:26:54;18.70;99.90
21115;DHT22;10715;48.546;9.896;2023-07-13T08:29:20;18.70;99.90
21115;DHT22;10715;48.546;9.896;2023-07-13T08:31:46;18.70;99.90
21115;DHT22;10715;48.546;9.896;2023-07-13T08:34:11;18.70;99.90
21115;DHT22;10715;48.546;9.896;2023-07-13T08:36:37;18.70;99.90
21115;DHT22;10715;48.546;9.896;2023-07-13T08:39:03;18.70;99.90
21115;DHT22;10715;48.546;9.896;2023-07-13T08:41:29;18.70;99.90
21115;DHT22;10715;48.546;9.896;2023-07-13T08:43:58;18.70;99.90
21115;DHT22;10715;48.546;9.896;2023-07-13T08:46:26;18.70;99.90
21115;DHT22;10715;48.546;9.896;2023-07-13T08:48:58;18.60;99.90
21115;DHT22;10715;48.546;9.896;2023-07-13T08:54:26;18.60;99.90
21115;DHT22;10715;48.546;9.896;2023-07-13T08:56:53;18.60;99.90
21115;DHT22;10715;48.546;9.896;2023-07-13T08:59:24;18.60;99.90
21115;DHT22;10715;48.546;9.896;2023-07-13T09:02:20;18.60;99.90
21115;DHT22;10715;48.546;9.896;2023-07-13T09:04:56;18.70;99.90
21115;DHT22;10715;48.546;9.896;2023-07-13T09:10:37;18.90;99.90
21115;DHT22;10715;48.546;9.896;2023-07-13T09:15:45;19.00;99.90
21115;DHT22;10715;48.546;9.896;2023-07-13T09:18:33;19.10;99.90
21115;DHT22;10715;48.546;9.896;2023-07-13T09:21:23;19.10;99.90
21115;DHT22;10715;48.546;9.896;2023-07-13T09:23:53;19.20;99.90
21115;DHT22;10715;48.546;9.896;2023-07-13T09:26:23;19.30;99.90
21115;DHT22;10715;48.546;9.896;2023-07-13T09:28:58;19.30;99.90
21115;DHT22;10715;48.546;9.896;2023-07-13T09:33:56;19.40;99.90
21115;DHT22;10715;48.546;9.896;2023-07-13T09:41:39;19.60;99.90
21115;DHT22;10715;48.546;9.896;2023-07-13T09:44:15;19.70;99.90
21115;DHT22;10715;48.546;9.896;2023-07-13T09:46:53;19.70;99.90
21115;DHT22;10715;48.546;9.896;2023-07-13T09:49:31;19.80;99.90
21115;DHT22;10715;48.546;9.896;2023-07-13T09:52:11;19.80;99.90
21115;DHT22;10715;48.546;9.896;2023-07-13T09:54:38;19.90;99.90
21115;DHT22;10715;48.546;9.896;2023-07-13T09:57:12;20.00;99.90
21115;DHT22;10715;48.546;9.896;2023-07-13T09:59:45;20.10;99.90
21115;DHT22;10715;48.546;9.896;2023-07-13T10:02:31;20.20;99.90
21115;DHT22;10715;48.546;9.896;2023-07-13T10:05:06;20.30;99.90
21115;DHT22;10715;48.546;9.896;2023-07-13T10:07:39;20.40;99.90
21115;DHT22;10715;48.546;9.896;2023-07-13T10:10:17;20.40;99.90
21115;DHT22;10715;48.546;9.896;2023-07-13T10:12:44;20.40;99.90
21115;DHT22;10715;48.546;9.896;2023-07-13T10:15:23;20.40;99.90
21115;DHT22;10715;48.546;9.896;2023-07-13T10:17:53;20.40;99.90
21115;DHT22;10715;48.546;9.896;2023-07-13T10:20:21;20.40;99.90
21115;DHT22;10715;48.546;9.896;2023-07-13T10:25:25;20.30;99.90
21115;DHT22;10715;48.546;9.896;2023-07-13T10:27:54;20.30;99.90
21115;DHT22;10715;48.546;9.896;2023-07-13T10:30:28;20.40;99.90
21115;DHT22;10715;48.546;9.896;2023-07-13T10:33:00;20.40;99.90
21115;DHT22;10715;48.546;9.896;2023-07-13T10:35:28;20.40;99.90
21115;DHT22;10715;48.546;9.896;2023-07-13T10:38:03;20.50;99.90
21115;DHT22;10715;48.546;9.896;2023-07-13T10:40:40;20.60;99.90
21115;DHT22;10715;48.546;9.896;2023-07-13T10:43:32;20.60;99.90
21115;DHT22;10715;48.546;9.896;2023-07-13T10:46:00;20.60;99.90
21115;DHT22;10715;48.546;9.896;2023-07-13T10:48:27;20.60;99.90
21115;DHT22;10715;48.546;9.896;2023-07-13T10:50:55;20.70;99.90
21115;DHT22;10715;48.546;9.896;2023-07-13T10:53:33;20.70;99.90
21115;DHT22;10715;48.546;9.896;2023-07-13T10:56:04;20.70;99.90
21115;DHT22;10715;48.546;9.896;2023-07-13T10:58:42;20.70;99.90
21115;DHT22;10715;48.546;9.896;2023-07-13T11:01:17;20.80;99.90
21115;DHT22;10715;48.546;9.896;2023-07-13T11:06:33;20.90;99.90
21115;DHT22;10715;48.546;9.896;2023-07-13T11:11:45;20.90;99.90
21115;DHT22;10715;48.546;9.896;2023-07-13T11:14:30;21.00;99.90
21115;DHT22;10715;48.546;9.896;2023-07-13T11:16:56;21.00;99.90
21115;DHT22;10715;48.546;9.896;2023-07-13T11:25:01;21.00;99.90
21115;DHT22;10715;48.546;9.896;2023-07-13T11:28:05;21.10;99.90
21115;DHT22;10715;48.546;9.896;2023-07-13T11:36:16;21.20;99.90
21115;DHT22;10715;48.546;9.896;2023-07-13T11:39:02;21.20;99.90
21115;DHT22;10715;48.546;9.896;2023-07-13T11:41:38;21.20;99.90
21115;DHT22;10715;48.546;9.896;2023-07-13T11:44:14;21.30;99.90
21115;DHT22;10715;48.546;9.896;2023-07-13T11:46:56;21.30;99.90
21115;DHT22;10715;48.546;9.896;2023-07-13T11:49:30;21.40;99.90
21115;DHT22;10715;48.546;9.896;2023-07-13T11:51:57;21.50;99.90
21115;DHT22;10715;48.546;9.896;2023-07-13T11:54:27;21.60;99.90
21115;DHT22;10715;48.546;9.896;2023-07-13T11:56:59;21.60;99.90
21115;DHT22;10715;48.546;9.896;2023-07-13T11:59:29;21.60;99.90
21115;DHT22;10715;48.546;9.896;2023-07-13T12:01:55;21.60;99.90
21115;DHT22;10715;48.546;9.896;2023-07-13T12:04:32;21.60;99.90
21115;DHT22;10715;48.546;9.896;2023-07-13T12:07:17;21.60;99.90
21115;DHT22;10715;48.546;9.896;2023-07-13T12:09:43;21.70;99.90
21115;DHT22;10715;48.546;9.896;2023-07-13T12:12:14;21.70;99.90
21115;DHT22;10715;48.546;9.896;2023-07-13T12:14:42;21.70;99.90
21115;DHT22;10715;48.546;9.896;2023-07-13T12:17:20;21.70;99.90
21115;DHT22;10715;48.546;9.896;2023-07-13T12:19:51;21.70;99.90
21115;DHT22;10715;48.546;9.896;2023-07-13T12:22:19;21.60;99.90
21115;DHT22;10715;48.546;9.896;2023-07-13T12:24:46;21.60;99.90
21115;DHT22;10715;48.546;9.896;2023-07-13T12:30:00;21.60;99.90
21115;DHT22;10715;48.546;9.896;2023-07-13T12:32:26;21.60;99.90
21115;DHT22;10715;48.546;9.896;2023-07-13T12:34:57;21.70;99.60
21115;DHT22;10715;48.546;9.896;2023-07-13T12:37:28;21.70;99.60
21115;DHT22;10715;48.546;9.896;2023-07-13T12:39:56;21.70;99.90
21115;DHT22;10715;48.546;9.896;2023-07-13T12:42:28;21.70;99.90
21115;DHT22;10715;48.546;9.896;2023-07-13T12:45:16;21.80;99.90
21115;DHT22;10715;48.546;9.896;2023-07-13T12:47:46;21.90;99.30
21115;DHT22;10715;48.546;9.896;2023-07-13T12:50:18;21.90;97.30
21115;DHT22;10715;48.546;9.896;2023-07-13T12:52:49;22.00;98.50
21115;DHT22;10715;48.546;9.896;2023-07-13T12:55:20;22.00;97.70
21115;DHT22;10715;48.546;9.896;2023-07-13T12:57:55;22.00;98.60
21115;DHT22;10715;48.546;9.896;2023-07-13T13:00:26;22.00;98.70
21115;DHT22;10715;48.546;9.896;2023-07-13T13:02:55;22.10;99.00
21115;DHT22;10715;48.546;9.896;2023-07-13T13:05:22;22.10;97.90
21115;DHT22;10715;48.546;9.896;2023-07-13T13:07:51;22.10;97.10
21115;DHT22;10715;48.546;9.896;2023-07-13T13:10:17;22.20;95.20
21115;DHT22;10715;48.546;9.896;2023-07-13T13:12:43;22.20;96.10
21115;DHT22;10715;48.546;9.896;2023-07-13T13:15:10;22.20;95.80
21115;DHT22;10715;48.546;9.896;2023-07-13T13:17:37;22.30;96.90
21115;DHT22;10715;48.546;9.896;2023-07-13T13:20:18;22.30;98.10
21115;DHT22;10715;48.546;9.896;2023-07-13T13:22:44;22.40;97.10
21115;DHT22;10715;48.546;9.896;2023-07-13T13:25:14;22.40;97.10
21115;DHT22;10715;48.546;9.896;2023-07-13T13:27:44;22.40;96.20
21115;DHT22;10715;48.546;9.896;2023-07-13T13:30:12;22.40;96.80
21115;DHT22;10715;48.546;9.896;2023-07-13T13:32:42;22.40;96.10
21115;DHT22;10715;48.546;9.896;2023-07-13T13:35:19;22.40;96.50
21115;DHT22;10715;48.546;9.896;2023-07-13T13:37:46;22.40;96.80
21115;DHT22;10715;48.546;9.896;2023-07-13T13:40:18;22.40;96.00
21115;DHT22;10715;48.546;9.896;2023-07-13T13:42:45;22.40;96.00
21115;DHT22;10715;48.546;9.896;2023-07-13T13:45:11;22.50;96.30
21115;DHT22;10715;48.546;9.896;2023-07-13T13:47:43;22.50;97.00
21115;DHT22;10715;48.546;9.896;2023-07-13T13:50:16;22.60;95.90
21115;DHT22;10715;48.546;9.896;2023-07-13T13:52:43;22.70;96.50
21115;DHT22;10715;48.546;9.896;2023-07-13T13:55:20;22.70;95.40
21115;DHT22;10715;48.546;9.896;2023-07-13T13:57:47;22.70;96.30
21115;DHT22;10715;48.546;9.896;2023-07-13T14:00:14;22.70;95.20
21115;DHT22;10715;48.546;9.896;2023-07-13T14:02:45;22.70;95.60
21115;DHT22;10715;48.546;9.896;2023-07-13T14:05:19;22.70;93.50
21115;DHT22;10715;48.546;9.896;2023-07-13T14:07:45;22.70;95.70
21115;DHT22;10715;48.546;9.896;2023-07-13T14:10:16;22.70;94.60
21115;DHT22;10715;48.546;9.896;2023-07-13T14:12:45;22.70;95.20
21115;DHT22;10715;48.546;9.896;2023-07-13T14:15:26;22.70;95.40
21115;DHT22;10715;48.546;9.896;2023-07-13T14:17:53;22.70;95.00
21115;DHT22;10715;48.546;9.896;2023-07-13T14:20:21;22.70;96.00
21115;DHT22;10715;48.546;9.896;2023-07-13T14:22:50;22.70;95.40
21115;DHT22;10715;48.546;9.896;2023-07-13T14:25:20;22.70;95.00
21115;DHT22;10715;48.546;9.896;2023-07-13T14:27:48;22.80;96.20
21115;DHT22;10715;48.546;9.896;2023-07-13T14:30:20;22.80;97.10
21115;DHT22;10715;48.546;9.896;2023-07-13T14:32:46;22.80;95.00
21115;DHT22;10715;48.546;9.896;2023-07-13T14:35:14;22.80;95.40
21115;DHT22;10715;48.546;9.896;2023-07-13T14:37:41;22.80;95.60
21115;DHT22;10715;48.546;9.896;2023-07-13T14:40:32;22.80;95.90
21115;DHT22;10715;48.546;9.896;2023-07-13T14:42:58;22.70;95.40
21115;DHT22;10715;48.546;9.896;2023-07-13T14:45:24;22.70;95.50
21115;DHT22;10715;48.546;9.896;2023-07-13T14:47:51;22.60;94.20
21115;DHT22;10715;48.546;9.896;2023-07-13T14:50:19;22.60;94.40
21115;DHT22;10715;48.546;9.896;2023-07-13T14:52:47;22.60;95.40
21115;DHT22;10715;48.546;9.896;2023-07-13T14:55:15;22.60;94.40
21115;DHT22;10715;48.546;9.896;2023-07-13T14:57:41;22.60;94.30
21115;DHT22;10715;48.546;9.896;2023-07-13T15:00:18;22.60;93.90
21115;DHT22;10715;48.546;9.896;2023-07-13T15:02:47;22.60;94.70
21115;DHT22;10715;48.546;9.896;2023-07-13T15:05:19;22.70;93.80
21115;DHT22;10715;48.546;9.896;2023-07-13T15:07:46;22.70;94.50
21115;DHT22;10715;48.546;9.896;2023-07-13T15:10:23;22.70;95.40
21115;DHT22;10715;48.546;9.896;2023-07-13T15:12:52;22.70;93.60
21115;DHT22;10715;48.546;9.896;2023-07-13T15:15:18;22.70;94.80
21115;DHT22;10715;48.546;9.896;2023-07-13T15:17:46;22.60;94.90
21115;DHT22;10715;48.546;9.896;2023-07-13T15:20:16;22.60;95.40
21115;DHT22;10715;48.546;9.896;2023-07-13T15:22:43;22.60;94.60
21115;DHT22;10715;48.546;9.896;2023-07-13T15:25:22;22.60;94.80
21115;DHT22;10715;48.546;9.896;2023-07-13T15:27:53;22.70;95.00
21115;DHT22;10715;48.546;9.896;2023-07-13T15:30:20;22.70;95.40
21115;DHT22;10715;48.546;9.896;2023-07-13T15:32:47;22.70;94.10
21115;DHT22;10715;48.546;9.896;2023-07-13T15:35:21;22.70;94.00
21115;DHT22;10715;48.546;9.896;2023-07-13T15:37:50;22.70;93.90
21115;DHT22;10715;48.546;9.896;2023-07-13T15:40:17;22.60;95.00
21115;DHT22;10715;48.546;9.896;2023-07-13T15:42:44;22.60;95.20
21115;DHT22;10715;48.546;9.896;2023-07-13T15:45:24;22.60;95.60
21115;DHT22;10715;48.546;9.896;2023-07-13T15:47:53;22.60;95.20
21115;DHT22;10715;48.546;9.896;2023-07-13T15:50:24;22.60;94.70
21115;DHT22;10715;48.546;9.896;2023-07-13T15:52:55;22.60;96.90
21115;DHT22;10715;48.546;9.896;2023-07-13T15:55:23;22.60;95.10
21115;DHT22;10715;48.546;9.896;2023-07-13T15:57:51;22.60;94.50
21115;DHT22;10715;48.546;9.896;2023-07-13T16:02:47;22.50;93.70
21115;DHT22;10715;48.546;9.896;2023-07-13T16:05:13;22.50;95.20
21115;DHT22;10715;48.546;9.896;2023-07-13T16:07:45;22.50;94.50
21115;DHT22;10715;48.546;9.896;2023-07-13T16:10:22;22.40;94.60
21115;DHT22;10715;48.546;9.896;2023-07-13T16:12:50;22.40;94.80
21115;DHT22;10715;48.546;9.896;2023-07-13T16:15:20;22.40;94.90
21115;DHT22;10715;48.546;9.896;2023-07-13T16:17:47;22.40;93.90
21115;DHT22;10715;48.546;9.896;2023-07-13T16:20:14;22.40;94.40
21115;DHT22;10715;48.546;9.896;2023-07-13T16:22:42;22.40;93.50